sensor_id;sensor_type;location;lat;lon;timestamp;temperature;humidity
2757;DHT22;1386;50.862;6.494;2023-04-25T05:53:29;7.10;99.90
2757;DHT22;1386;50.862;6.494;2023-04-25T05:55:55;7.10;99.90
2757;DHT22;1386;50.862;6.494;2023-04-25T05:58:22;7.20;99.90
2757;DHT22;1386;50.862;6.494;2023-04-25T06:00:49;7.10;99.90
2757;DHT22;1386;50.862;6.494;2023-04-25T06:03:16;7.10;99.90
2757;DHT22;1386;50.862;6.494;2023-04-25T06:05:43;7.20;99.90
2757;DHT22;1386;50.862;6.494;2023-04-25T06:08:10;7.20;99.90
2757;DHT22;1386;50.862;6.494;2023-04-25T06:10:38;7.30;99.90
2757;DHT22;1386;50.862;6.494;2023-04-25T06:13:05;7.30;99.90
2757;DHT22;1386;50.862;6.494;2023-04-25T06:15:33;7.40;99.90
2757;DHT22;1386;50.862;6.494;2023-04-25T06:18:00;7.30;99.90
2757;DHT22;1386;50.862;6.494;2023-04-25T06:20:30;7.40;99.90
2757;DHT22;1386;50.862;6.494;2023-04-25T06:22:57;7.50;99.90
2757;DHT22;1386;50.862;6.494;2023-04-25T06:25:24;7.50;99.90
2757;DHT22;1386;50.862;6.494;2023-04-25T06:27:53;7.40;99.90
2757;DHT22;1386;50.862;6.494;2023-04-25T06:30:20;7.50;99.90
2757;DHT22;1386;50.862;6.494;2023-04-25T06:32:51;7.50;99.90
2757;DHT22;1386;50.862;6.494;2023-04-25T06:35:18;7.60;99.90
2757;DHT22;1386;50.862;6.494;2023-04-25T06:37:45;7.60;99.90
2757;DHT22;1386;50.862;6.494;2023-04-25T06:40:12;7.70;99.90
2757;DHT22;1386;50.862;6.494;2023-04-25T06:42:39;7.80;99.90
2757;DHT22;1386;50.862;6.494;2023-04-25T06:45:08;7.80;99.90
2757;DHT22;1386;50.862;6.494;2023-04-25T06:47:35;7.90;99.90
2757;DHT22;1386;50.862;6.494;2023-04-25T06:50:02;8.00;99.90
2757;DHT22;1386;50.862;6.494;2023-04-25T06:52:29;8.00;99.90
2757;DHT22;1386;50.862;6.494;2023-04-25T06:54:56;8.00;99.90
2757;DHT22;1386;50.862;6.494;2023-04-25T06:57:23;8.10;99.90
2757;DHT22;1386;50.862;6.494;2023-04-25T06:59:50;8.10;99.90
2757;DHT22;1386;50.862;6.494;2023-04-25T07:02:18;8.10;99.90
2757;DHT22;1386;50.862;6.494;2023-04-25T07:04:47;8.20;99.90
2757;DHT22;1386;50.862;6.494;2023-04-25T07:07:13;8.20;99.90
2757;DHT22;1386;50.862;6.494;2023-04-25T07:09:40;8.20;99.90
2757;DHT22;1386;50.862;6.494;2023-04-25T07:12:07;8.20;99.90
2757;DHT22;1386;50.862;6.494;2023-04-25T07:14:34;8.30;99.90
2757;DHT22;1386;50.862;6.494;2023-04-25T07:17:01;8.30;99.90
2757;DHT22;1386;50.862;6.494;2023-04-25T07:19:29;8.40;99.90
2757;DHT22;1386;50.862;6.494;2023-04-25T07:21:56;8.40;99.90
2757;DHT22;1386;50.862;6.494;2023-04-25T07:24:23;8.40;99.90
2757;DHT22;1386;50.862;6.494;2023-04-25T07:26:50;8.40;99.90
2757;DHT22;1386;50.862;6.494;2023-04-25T07:29:17;8.40;99.90
2757;DHT22;1386;50.862;6.494;2023-04-25T07:31:44;8.40;99.90
2757;DHT22;1386;50.862;6.494;2023-04-25T07:34:11;8.50;99.90
2757;DHT22;1386;50.862;6.494;2023-04-25T07:36:39;8.50;99.90
2757;DHT22;1386;50.862;6.494;2023-04-25T07:39:06;8.40;99.90
2757;DHT22;1386;50.862;6.494;2023-04-25T07:41:34;8.40;99.90
2757;DHT22;1386;50.862;6.494;2023-04-25T07:44:01;8.60;99.90
2757;DHT22;1386;50.862;6.494;2023-04-25T07:46:28;8.70;99.90
2757;DHT22;1386;50.862;6.494;2023-04-25T07:48:55;8.80;99.90
2757;DHT22;1386;50.862;6.494;2023-04-25T07:51:21;8.80;99.90
2757;DHT22;1386;50.862;6.494;2023-04-25T07:53:50;9.00;99.90
2757;DHT22;1386;50.862;6.494;2023-04-25T07:56:17;9.00;99.90
2757;DHT22;1386;50.862;6.494;2023-04-25T07:58:44;9.00;99.90
2757;DHT22;1386;50.862;6.494;2023-04-25T08:01:11;9.00;99.90
2757;DHT22;1386;50.862;6.494;2023-04-25T08:03:37;9.00;99.90
2757;DHT22;1386;50.862;6.494;2023-04-25T08:06:05;9.00;99.90
2757;DHT22;1386;50.862;6.494;2023-04-25T08:08:32;9.00;99.90
2757;DHT22;1386;50.862;6.494;2023-04-25T08:11:00;9.00;99.90
2757;DHT22;1386;50.862;6.494;2023-04-25T08:13:27;9.10;99.90
2757;DHT22;1386;50.862;6.494;2023-04-25T08:15:54;9.30;99.90
2757;DHT22;1386;50.862;6.494;2023-04-25T08:18:21;9.40;99.90
2757;DHT22;1386;50.862;6.494;2023-04-25T08:20:48;9.50;99.90
2757;DHT22;1386;50.862;6.494;2023-04-25T08:23:15;9.60;99.90
2757;DHT22;1386;50.862;6.494;2023-04-25T08:25:42;9.70;99.90
2757;DHT22;1386;50.862;6.494;2023-04-25T08:28:10;9.70;99.90
2757;DHT22;1386;50.862;6.494;2023-04-25T08:30:37;9.70;99.90
2757;DHT22;1386;50.862;6.494;2023-04-25T08:33:04;9.70;99.90
2757;DHT22;1386;50.862;6.494;2023-04-25T08:35:31;9.80;99.90
2757;DHT22;1386;50.862;6.494;2023-04-25T08:37:58;9.80;99.90
2757;DHT22;1386;50.862;6.494;2023-04-25T08:40:27;9.80;99.90
2757;DHT22;1386;50.862;6.494;2023-04-25T08:42:57;9.80;99.90
2757;DHT22;1386;50.862;6.494;2023-04-25T08:45:27;9.90;99.90
2757;DHT22;1386;50.862;6.494;2023-04-25T08:47:57;9.90;99.90
2757;DHT22;1386;50.862;6.494;2023-04-25T08:50:24;10.00;99.90
2757;DHT22;1386;50.862;6.494;2023-04-25T08:52:53;10.10;99.90
2757;DHT22;1386;50.862;6.494;2023-04-25T08:55:21;10.10;99.90
2757;DHT22;1386;50.862;6.494;2023-04-25T08:57:49;10.10;99.90
2757;DHT22;1386;50.862;6.494;2023-04-25T09:00:18;10.20;99.90
2757;DHT22;1386;50.862;6.494;2023-04-25T09:02:47;10.20;99.90
2757;DHT22;1386;50.862;6.494;2023-04-25T09:05:16;10.30;99.90
2757;DHT22;1386;50.862;6.494;2023-04-25T09:07:44;10.30;99.90
2757;DHT22;1386;50.862;6.494;2023-04-25T09:10:10;10.40;99.90
2757;DHT22;1386;50.862;6.494;2023-04-25T09:12:37;10.90;99.90
2757;DHT22;1386;50.862;6.494;2023-04-25T09:15:06;11.20;99.90
2757;DHT22;1386;50.862;6.494;2023-04-25T09:17:34;11.40;99.90
2757;DHT22;1386;50.862;6.494;2023-04-25T09:20:07;11.40;99.90
2757;DHT22;1386;50.862;6.494;2023-04-25T09:22:35;11.30;99.90
2757;DHT22;1386;50.862;6.494;2023-04-25T09:25:03;11.40;99.90
2757;DHT22;1386;50.862;6.494;2023-04-25T09:27:32;11.40;99.90
2757;DHT22;1386;50.862;6.494;2023-04-25T09:30:00;11.30;99.90
2757;DHT22;1386;50.862;6.494;2023-04-25T09:32:27;11.20;99.90
2757;DHT22;1386;50.862;6.494;2023-04-25T09:34:55;11.10;99.90
2757;DHT22;1386;50.862;6.494;2023-04-25T09:37:25;10.90;99.90
2757;DHT22;1386;50.862;6.494;2023-04-25T09:39:54;10.80;99.90
2757;DHT22;1386;50.862;6.494;2023-04-25T09:42:27;10.70;99.90
2757;DHT22;1386;50.862;6.494;2023-04-25T09:45:00;10.80;99.90
2757;DHT22;1386;50.862;6.494;2023-04-25T09:47:28;10.70;99.90
2757;DHT22;1386;50.862;6.494;2023-04-25T09:49:55;10.80;99.90
2757;DHT22;1386;50.862;6.494;2023-04-25T09:52:24;11.00;99.90
2757;DHT22;1386;50.862;6.494;2023-04-25T09:54:51;11.20;99.90
2757;DHT22;1386;50.862;6.494;2023-04-25T09:57:20;11.10;99.90
2757;DHT22;1386;50.862;6.494;2023-04-25T09:59:54;11.20;99.90
2757;DHT22;1386;50.862;6.494;2023-04-25T10:02:48;11.30;99.90
2757;DHT22;1386;50.862;6.494;2023-04-25T10:05:34;11.10;99.90
2757;DHT22;1386;50.862;6.494;2023-04-25T10:08:25;10.90;99.90
2757;DHT22;1386;50.862;6.494;2023-04-25T10:11:01;10.80;99.90
2757;DHT22;1386;50.862;6.494;2023-04-25T10:13:50;10.70;99.90
2757;DHT22;1386;50.862;6.494;2023-04-25T10:16:18;10.60;99.90
2757;DHT22;1386;50.862;6.494;2023-04-25T10:19:08;11.10;99.90
2757;DHT22;1386;50.862;6.494;2023-04-25T10:25:23;10.70;99.90
2757;DHT22;1386;50.862;6.494;2023-04-25T10:28:14;11.30;99.90
2757;DHT22;1386;50.862;6.494;2023-04-25T10:31:07;11.70;99.90
2757;DHT22;1386;50.862;6.494;2023-04-25T10:36:32;12.20;99.90
2757;DHT22;1386;50.862;6.494;2023-04-25T10:39:06;12.70;99.90
2757;DHT22;1386;50.862;6.494;2023-04-25T10:45:27;12.30;99.90
2757;DHT22;1386;50.862;6.494;2023-04-25T10:49:05;12.20;99.90
2757;DHT22;1386;50.862;6.494;2023-04-25T10:55:41;11.60;99.90
2757;DHT22;1386;50.862;6.494;2023-04-25T10:59:14;11.40;99.90
2757;DHT22;1386;50.862;6.494;2023-04-25T11:09:04;12.40;99.90
2757;DHT22;1386;50.862;6.494;2023-04-25T11:12:20;12.20;99.90
2757;DHT22;1386;50.862;6.494;2023-04-25T11:15:33;12.50;99.90
2757;DHT22;1386;50.862;6.494;2023-04-25T11:35:51;11.90;99.90
2757;DHT22;1386;50.862;6.494;2023-04-25T12:39:23;13.70;99.90
2757;DHT22;1386;50.862;6.494;2023-04-25T12:41:51;13.50;99.90
2757;DHT22;1386;50.862;6.494;2023-04-25T12:44:19;13.40;99.90
2757;DHT22;1386;50.862;6.494;2023-04-25T12:46:47;13.30;99.90
2757;DHT22;1386;50.862;6.494;2023-04-25T12:49:14;13.20;99.90
2757;DHT22;1386;50.862;6.494;2023-04-25T12:51:41;12.80;99.90
2757;DHT22;1386;50.862;6.494;2023-04-25T12:54:08;12.60;99.90
2757;DHT22;1386;50.862;6.494;2023-04-25T12:56:36;12.40;99.90
2757;DHT22;1386;50.862;6.494;2023-04-25T12:59:03;12.20;99.90
2757;DHT22;1386;50.862;6.494;2023-04-25T13:01:30;12.10;99.90
2757;DHT22;1386;50.862;6.494;2023-04-25T13:03:57;11.90;99.90
2757;DHT22;1386;50.862;6.494;2023-04-25T13:06:24;11.90;99.90
2757;DHT22;1386;50.862;6.494;2023-04-25T13:08:51;11.80;99.90
2757;DHT22;1386;50.862;6.494;2023-04-25T13:11:18;11.80;99.90
2757;DHT22;1386;50.862;6.494;2023-04-25T13:13:46;11.80;99.90
2757;DHT22;1386;50.862;6.494;2023-04-25T13:16:13;11.90;99.90
2757;DHT22;1386;50.862;6.494;2023-04-25T13:18:40;11.80;99.90
2757;DHT22;1386;50.862;6.494;2023-04-25T13:21:08;11.90;99.90
2757;DHT22;1386;50.862;6.494;2023-04-25T13:23:36;12.30;99.90
2757;DHT22;1386;50.862;6.494;2023-04-25T13:26:03;12.50;99.90
2757;DHT22;1386;50.862;6.494;2023-04-25T13:28:29;12.80;99.90
2757;DHT22;1386;50.862;6.494;2023-04-25T13:31:00;13.10;99.90
2757;DHT22;1386;50.862;6.494;2023-04-25T13:33:26;13.20;99.90
2757;DHT22;1386;50.862;6.494;2023-04-25T13:35:53;13.30;99.90
2757;DHT22;1386;50.862;6.494;2023-04-25T13:38:22;13.40;99.90
2757;DHT22;1386;50.862;6.494;2023-04-25T13:40:49;13.30;99.90
2757;DHT22;1386;50.862;6.494;2023-04-25T13:43:19;13.00;99.90
2757;DHT22;1386;50.862;6.494;2023-04-25T13:45:47;12.80;99.90
2757;DHT22;1386;50.862;6.494;2023-04-25T13:48:15;12.90;99.90
2757;DHT22;1386;50.862;6.494;2023-04-25T13:50:42;13.20;99.90
2757;DHT22;1386;50.862;6.494;2023-04-25T13:53:09;13.40;99.90
2757;DHT22;1386;50.862;6.494;2023-04-25T13:55:36;13.40;99.90
2757;DHT22;1386;50.862;6.494;2023-04-25T13:58:04;13.60;99.90
2757;DHT22;1386;50.862;6.494;2023-04-25T14:00:34;13.50;99.90
2757;DHT22;1386;50.862;6.494;2023-04-25T14:03:01;13.40;99.90
2757;DHT22;1386;50.862;6.494;2023-04-25T14:05:31;13.40;99.90
2757;DHT22;1386;50.862;6.494;2023-04-25T14:08:00;13.10;99.90
2757;DHT22;1386;50.862;6.494;2023-04-25T14:10:27;12.80;99.90
2757;DHT22;1386;50.862;6.494;2023-04-25T14:12:54;12.60;99.90
2757;DHT22;1386;50.862;6.494;2023-04-25T14:15:21;12.40;99.90
2757;DHT22;1386;50.862;6.494;2023-04-25T14:17:47;12.30;99.90
2757;DHT22;1386;50.862;6.494;2023-04-25T14:20:15;11.90;99.90
2757;DHT22;1386;50.862;6.494;2023-04-25T14:22:47;12.00;99.90
2757;DHT22;1386;50.862;6.494;2023-04-25T14:25:14;11.90;99.90
2757;DHT22;1386;50.862;6.494;2023-04-25T14:27:41;12.00;99.90
2757;DHT22;1386;50.862;6.494;2023-04-25T15:56:49;12.30;99.90
2757;DHT22;1386;50.862;6.494;2023-04-25T15:59:16;12.20;99.90
2757;DHT22;1386;50.862;6.494;2023-04-25T16:01:43;12.00;99.90
2757;DHT22;1386;50.862;6.494;2023-04-25T16:04:10;11.90;99.90
2757;DHT22;1386;50.862;6.494;2023-04-25T16:06:37;11.70;99.90
2757;DHT22;1386;50.862;6.494;2023-04-25T16:09:04;11.70;99.90
2757;DHT22;1386;50.862;6.494;2023-04-25T16:11:31;11.50;99.90
2757;DHT22;1386;50.862;6.494;2023-04-25T16:13:59;11.40;99.90
2757;DHT22;1386;50.862;6.494;2023-04-25T16:16:26;11.40;99.90
2757;DHT22;1386;50.862;6.494;2023-04-25T16:18:52;11.40;99.90
2757;DHT22;1386;50.862;6.494;2023-04-25T16:21:19;11.40;99.90
2757;DHT22;1386;50.862;6.494;2023-04-25T16:23:46;11.30;99.90
2757;DHT22;1386;50.862;6.494;2023-04-25T16:26:13;11.40;99.90
2757;DHT22;1386;50.862;6.494;2023-04-25T16:28:40;11.80;99.90
2757;DHT22;1386;50.862;6.494;2023-04-25T16:31:08;12.10;99.90
2757;DHT22;1386;50.862;6.494;2023-04-25T16:33:38;12.20;99.90
2757;DHT22;1386;50.862;6.494;2023-04-25T16:36:06;12.30;99.90
2757;DHT22;1386;50.862;6.494;2023-04-25T16:38:33;12.30;99.90
2757;DHT22;1386;50.862;6.494;2023-04-25T16:41:00;12.40;99.90
2757;DHT22;1386;50.862;6.494;2023-04-25T16:43:27;12.50;99.90
2757;DHT22;1386;50.862;6.494;2023-04-25T16:45:54;12.60;99.90
2757;DHT22;1386;50.862;6.494;2023-04-25T16:48:23;12.70;99.90
2757;DHT22;1386;50.862;6.494;2023-04-25T16:50:53;12.40;99.90
2757;DHT22;1386;50.862;6.494;2023-04-25T16:53:21;12.10;99.90
2757;DHT22;1386;50.862;6.494;2023-04-25T16:55:48;11.90;99.90
2757;DHT22;1386;50.862;6.494;2023-04-25T17:01:44;11.50;99.90
2757;DHT22;1386;50.862;6.494;2023-04-25T17:04:13;11.50;99.90
2757;DHT22;1386;50.862;6.494;2023-04-25T17:06:40;11.40;99.90
2757;DHT22;1386;50.862;6.494;2023-04-25T17:09:07;11.40;99.90
2757;DHT22;1386;50.862;6.494;2023-04-25T17:11:35;11.30;99.90
2757;DHT22;1386;50.862;6.494;2023-04-25T17:14:06;11.20;99.90
2757;DHT22;1386;50.862;6.494;2023-04-25T17:16:34;11.30;99.90
2757;DHT22;1386;50.862;6.494;2023-04-25T17:19:02;11.10;99.90
2757;DHT22;1386;50.862;6.494;2023-04-25T17:21:30;11.10;99.90
2757;DHT22;1386;50.862;6.494;2023-04-25T17:23:57;11.10;99.90
2757;DHT22;1386;50.862;6.494;2023-04-25T17:26:25;11.00;99.90
2757;DHT22;1386;50.862;6.494;2023-04-25T17:28:52;10.90;99.90
2757;DHT22;1386;50.862;6.494;2023-04-25T17:31:19;10.90;99.90
2757;DHT22;1386;50.862;6.494;2023-04-25T17:33:47;10.90;99.90
2757;DHT22;1386;50.862;6.494;2023-04-25T17:36:14;10.90;99.90
2757;DHT22;1386;50.862;6.494;2023-04-25T17:38:43;10.80;99.90
2757;DHT22;1386;50.862;6.494;2023-04-25T17:41:10;10.90;99.90
2757;DHT22;1386;50.862;6.494;2023-04-25T17:43:38;10.80;99.90
2757;DHT22;1386;50.862;6.494;2023-04-25T17:46:05;10.80;99.90
2757;DHT22;1386;50.862;6.494;2023-04-25T17:48:32;10.80;99.90
2757;DHT22;1386;50.862;6.494;2023-04-25T17:51:00;10.70;99.90
2757;DHT22;1386;50.862;6.494;2023-04-25T17:53:27;10.60;99.90
2757;DHT22;1386;50.862;6.494;2023-04-25T17:59:30;10.40;99.90
2757;DHT22;1386;50.862;6.494;2023-04-25T18:02:22;10.30;99.90
2757;DHT22;1386;50.862;6.494;2023-04-25T18:04:49;10.30;99.90
2757;DHT22;1386;50.862;6.494;2023-04-25T18:07:16;10.20;99.90
2757;DHT22;1386;50.862;6.494;2023-04-25T18:09:43;10.20;99.90
2757;DHT22;1386;50.862;6.494;2023-04-25T18:12:10;10.20;99.90
2757;DHT22;1386;50.862;6.494;2023-04-25T18:14:40;10.10;99.90
2757;DHT22;1386;50.862;6.494;2023-04-25T18:17:12;10.10;99.90
2757;DHT22;1386;50.862;6.494;2023-04-25T18:20:23;10.00;99.90
2757;DHT22;1386;50.862;6.494;2023-04-25T18:23:14;10.10;99.90
2757;DHT22;1386;50.862;6.494;2023-04-25T18:25:45;9.90;99.90
2757;DHT22;1386;50.862;6.494;2023-04-25T18:28:17;10.00;99.90
2757;DHT22;1386;50.862;6.494;2023-04-25T18:30:51;10.10;99.90
2757;DHT22;1386;50.862;6.494;2023-04-25T18:33:19;9.90;99.90
2757;DHT22;1386;50.862;6.494;2023-04-25T18:35:49;9.80;99.90
2757;DHT22;1386;50.862;6.494;2023-04-25T18:38:16;10.30;99.90
2757;DHT22;1386;50.862;6.494;2023-04-25T18:40:44;9.80;99.90
2757;DHT22;1386;50.862;6.494;2023-04-25T18:43:13;9.70;99.90
2757;DHT22;1386;50.862;6.494;2023-04-25T18:45:58;9.60;99.90
2757;DHT22;1386;50.862;6.494;2023-04-25T18:48:42;9.60;99.90
2757;DHT22;1386;50.862;6.494;2023-04-25T18:51:09;9.50;99.90
2757;DHT22;1386;50.862;6.494;2023-04-25T18:53:37;9.40;99.90
2757;DHT22;1386;50.862;6.494;2023-04-25T18:56:04;9.30;99.90
2757;DHT22;1386;50.862;6.494;2023-04-25T18:58:31;9.20;99.90
2757;DHT22;1386;50.862;6.494;2023-04-25T19:00:59;9.20;99.90
2757;DHT22;1386;50.862;6.494;2023-04-25T19:03:28;9.10;99.90
2757;DHT22;1386;50.862;6.494;2023-04-25T19:05:56;9.10;99.90
2757;DHT22;1386;50.862;6.494;2023-04-25T19:08:23;9.00;99.90
2757;DHT22;1386;50.862;6.494;2023-04-25T19:10:49;8.90;99.90
2757;DHT22;1386;50.862;6.494;2023-04-25T19:13:18;8.80;99.90
2757;DHT22;1386;50.862;6.494;2023-04-25T19:15:45;8.70;99.90
2757;DHT22;1386;50.862;6.494;2023-04-25T19:18:13;8.70;99.90
2757;DHT22;1386;50.862;6.494;2023-04-25T19:20:41;8.70;99.90
2757;DHT22;1386;50.862;6.494;2023-04-25T19:23:08;8.60;99.90
2757;DHT22;1386;50.862;6.494;2023-04-25T19:25:35;8.90;99.90
2757;DHT22;1386;50.862;6.494;2023-04-25T19:28:02;8.50;99.90
2757;DHT22;1386;50.862;6.494;2023-04-25T19:30:32;8.50;99.90
2757;DHT22;1386;50.862;6.494;2023-04-25T19:32:59;8.50;99.90
2757;DHT22;1386;50.862;6.494;2023-04-25T19:35:27;8.40;99.90
2757;DHT22;1386;50.862;6.494;2023-04-25T19:37:57;8.40;99.90
2757;DHT22;1386;50.862;6.494;2023-04-25T19:40:24;8.40;99.90
2757;DHT22;1386;50.862;6.494;2023-04-25T19:42:51;8.40;99.90
2757;DHT22;1386;50.862;6.494;2023-04-25T19:45:19;8.30;99.90
2757;DHT22;1386;50.862;6.494;2023-04-25T19:47:46;8.20;99.90
2757;DHT22;1386;50.862;6.494;2023-04-25T19:50:13;8.10;99.90
2757;DHT22;1386;50.862;6.494;2023-04-25T19:52:42;8.10;99.90
2757;DHT22;1386;50.862;6.494;2023-04-25T19:55:09;8.00;99.90
2757;DHT22;1386;50.862;6.494;2023-04-25T19:57:37;8.00;99.90
2757;DHT22;1386;50.862;6.494;2023-04-25T20:00:07;7.90;99.90
2757;DHT22;1386;50.862;6.494;2023-04-25T20:02:38;7.90;99.90
2757;DHT22;1386;50.862;6.494;2023-04-25T20:05:06;7.90;99.90
2757;DHT22;1386;50.862;6.494;2023-04-25T20:07:34;7.90;99.90
2757;DHT22;1386;50.862;6.494;2023-04-25T20:10:04;7.90;99.90
2757;DHT22;1386;50.862;6.494;2023-04-25T20:12:33;7.80;99.90
2757;DHT22;1386;50.862;6.494;2023-04-25T20:15:01;7.80;99.90
2757;DHT22;1386;50.862;6.494;2023-04-25T20:17:28;7.80;99.90
2757;DHT22;1386;50.862;6.494;2023-04-25T20:19:55;7.80;99.90
2757;DHT22;1386;50.862;6.494;2023-04-25T20:22:22;7.70;99.90
2757;DHT22;1386;50.862;6.494;2023-04-25T20:24:50;7.70;99.90
2757;DHT22;1386;50.862;6.494;2023-04-25T20:27:18;7.70;99.90
2757;DHT22;1386;50.862;6.494;2023-04-25T20:29:45;7.60;99.90
2757;DHT22;1386;50.862;6.494;2023-04-25T20:32:12;7.60;99.90
2757;DHT22;1386;50.862;6.494;2023-04-25T20:34:39;7.60;99.90
2757;DHT22;1386;50.862;6.494;2023-04-25T20:37:06;7.50;99.90
2757;DHT22;1386;50.862;6.494;2023-04-25T20:39:33;7.50;99.90
2757;DHT22;1386;50.862;6.494;2023-04-25T20:42:00;7.50;99.90
2757;DHT22;1386;50.862;6.494;2023-04-25T20:44:28;7.40;99.90
2757;DHT22;1386;50.862;6.494;2023-04-25T20:47:01;7.40;99.90
2757;DHT22;1386;50.862;6.494;2023-04-25T20:49:29;7.40;99.90
2757;DHT22;1386;50.862;6.494;2023-04-25T20:51:55;7.30;99.90
2757;DHT22;1386;50.862;6.494;2023-04-25T20:54:22;7.30;99.90
2757;DHT22;1386;50.862;6.494;2023-04-25T20:56:51;7.20;99.90
2757;DHT22;1386;50.862;6.494;2023-04-25T20:59:21;7.20;99.90
2757;DHT22;1386;50.862;6.494;2023-04-25T21:01:49;7.10;99.90
2757;DHT22;1386;50.862;6.494;2023-04-25T21:04:16;7.10;99.90
2757;DHT22;1386;50.862;6.494;2023-04-25T21:06:43;7.10;99.90
2757;DHT22;1386;50.862;6.494;2023-04-25T21:09:10;7.10;99.90
2757;DHT22;1386;50.862;6.494;2023-04-25T21:11:38;7.10;99.90
2757;DHT22;1386;50.862;6.494;2023-04-25T21:14:05;7.10;99.90
2757;DHT22;1386;50.862;6.494;2023-04-25T21:16:32;7.10;99.90
2757;DHT22;1386;50.862;6.494;2023-04-25T21:19:01;7.20;99.90
2757;DHT22;1386;50.862;6.494;2023-04-25T21:21:28;7.20;99.90
2757;DHT22;1386;50.862;6.494;2023-04-25T21:23:55;7.20;99.90
2757;DHT22;1386;50.862;6.494;2023-04-25T21:26:23;7.20;99.90
2757;DHT22;1386;50.862;6.494;2023-04-25T21:28:50;7.20;99.90
2757;DHT22;1386;50.862;6.494;2023-04-25T21:31:18;7.20;99.90
2757;DHT22;1386;50.862;6.494;2023-04-25T21:33:45;7.20;99.90
2757;DHT22;1386;50.862;6.494;2023-04-25T21:36:13;7.20;99.90
2757;DHT22;1386;50.862;6.494;2023-04-25T21:38:40;7.20;99.90
2757;DHT22;1386;50.862;6.494;2023-04-25T21:41:07;7.20;99.90
2757;DHT22;1386;50.862;6.494;2023-04-25T21:43:34;7.20;99.90
2757;DHT22;1386;50.862;6.494;2023-04-25T21:46:01;7.10;99.90
2757;DHT22;1386;50.862;6.494;2023-04-25T21:48:29;7.10;99.90
2757;DHT22;1386;50.862;6.494;2023-04-25T21:50:56;7.10;99.90
2757;DHT22;1386;50.862;6.494;2023-04-25T21:53:24;7.10;99.90
2757;DHT22;1386;50.862;6.494;2023-04-25T21:55:51;7.10;99.90
2757;DHT22;1386;50.862;6.494;2023-04-25T21:58:18;7.10;99.90
2757;DHT22;1386;50.862;6.494;2023-04-25T22:00:45;7.10;99.90
2757;DHT22;1386;50.862;6.494;2023-04-25T22:03:12;7.10;99.90
2757;DHT22;1386;50.862;6.494;2023-04-25T22:05:40;7.00;99.90
2757;DHT22;1386;50.862;6.494;2023-04-25T22:08:07;7.00;99.90
2757;DHT22;1386;50.862;6.494;2023-04-25T22:10:35;6.90;99.90
2757;DHT22;1386;50.862;6.494;2023-04-25T22:13:02;6.80;99.90
2757;DHT22;1386;50.862;6.494;2023-04-25T22:15:30;6.80;99.90
2757;DHT22;1386;50.862;6.494;2023-04-25T22:17:57;6.70;99.90
2757;DHT22;1386;50.862;6.494;2023-04-25T22:20:24;6.70;99.90
2757;DHT22;1386;50.862;6.494;2023-04-25T22:22:55;6.70;99.90
2757;DHT22;1386;50.862;6.494;2023-04-25T22:25:22;6.60;99.90
2757;DHT22;1386;50.862;6.494;2023-04-25T22:27:50;6.50;99.90
2757;DHT22;1386;50.862;6.494;2023-04-25T22:30:17;6.50;99.90
2757;DHT22;1386;50.862;6.494;2023-04-25T22:32:44;6.50;99.90
2757;DHT22;1386;50.862;6.494;2023-04-25T22:35:11;6.50;99.90
2757;DHT22;1386;50.862;6.494;2023-04-25T22:37:39;6.40;99.90
2757;DHT22;1386;50.862;6.494;2023-04-25T22:40:07;6.30;99.90
2757;DHT22;1386;50.862;6.494;2023-04-25T22:42:38;6.30;99.90
2757;DHT22;1386;50.862;6.494;2023-04-25T22:45:07;6.30;99.90
2757;DHT22;1386;50.862;6.494;2023-04-25T22:47:35;6.30;99.90
2757;DHT22;1386;50.862;6.494;2023-04-25T22:50:02;6.20;99.90
2757;DHT22;1386;50.862;6.494;2023-04-25T22:52:31;6.20;99.90
2757;DHT22;1386;50.862;6.494;2023-04-25T22:54:59;6.20;99.90
2757;DHT22;1386;50.862;6.494;2023-04-25T22:57:27;6.10;99.90
2757;DHT22;1386;50.862;6.494;2023-04-25T22:59:54;6.20;99.90
2757;DHT22;1386;50.862;6.494;2023-04-25T23:02:23;6.20;99.90
2757;DHT22;1386;50.862;6.494;2023-04-25T23:04:50;6.20;99.90
2757;DHT22;1386;50.862;6.494;2023-04-25T23:07:17;6.20;99.90
2757;DHT22;1386;50.862;6.494;2023-04-25T23:09:45;6.10;99.90
2757;DHT22;1386;50.862;6.494;2023-04-25T23:12:18;6.20;99.90
2757;DHT22;1386;50.862;6.494;2023-04-25T23:14:48;6.20;99.90
2757;DHT22;1386;50.862;6.494;2023-04-25T23:17:16;6.20;99.90
2757;DHT22;1386;50.862;6.494;2023-04-25T23:19:44;6.10;99.90
2757;DHT22;1386;50.862;6.494;2023-04-25T23:22:11;6.10;99.90
2757;DHT22;1386;50.862;6.494;2023-04-25T23:24:38;6.00;99.90
2757;DHT22;1386;50.862;6.494;2023-04-25T23:27:05;6.00;99.90
2757;DHT22;1386;50.862;6.494;2023-04-25T23:29:32;6.00;99.90
2757;DHT22;1386;50.862;6.494;2023-04-25T23:32:00;5.90;99.90
2757;DHT22;1386;50.862;6.494;2023-04-25T23:34:29;5.90;99.90
2757;DHT22;1386;50.862;6.494;2023-04-25T23:36:58;5.90;99.90
2757;DHT22;1386;50.862;6.494;2023-04-25T23:39:28;5.90;99.90
2757;DHT22;1386;50.862;6.494;2023-04-25T23:41:56;5.80;99.90
2757;DHT22;1386;50.862;6.494;2023-04-25T23:44:23;5.80;99.90
2757;DHT22;1386;50.862;6.494;2023-04-25T23:46:50;5.80;99.90
2757;DHT22;1386;50.862;6.494;2023-04-25T23:49:17;5.80;99.90
2757;DHT22;1386;50.862;6.494;2023-04-25T23:51:43;5.80;99.90
2757;DHT22;1386;50.862;6.494;2023-04-25T23:54:12;5.80;99.90
2757;DHT22;1386;50.862;6.494;2023-04-25T23:56:39;5.70;99.90
2757;DHT22;1386;50.862;6.494;2023-04-25T23:59:06;5.70;99.90
